createdAt,value
2018-12-16T00:00:45.570Z,15.90
2018-12-16T00:03:13.820Z,15.07
2018-12-16T00:05:42.121Z,16.33
2018-12-16T00:08:10.463Z,14.57
2018-12-16T00:10:38.763Z,16.33
2018-12-16T00:13:07.223Z,17.20
2018-12-16T00:15:35.518Z,15.97
2018-12-16T00:18:03.879Z,16.63
2018-12-16T00:20:32.125Z,17.10
2018-12-16T00:23:00.440Z,17.90
2018-12-16T00:25:28.801Z,16.10
2018-12-16T00:27:57.049Z,17.97
2018-12-16T00:30:25.426Z,16.93
2018-12-16T00:32:53.737Z,16.30
2018-12-16T00:35:22.200Z,18.57
2018-12-16T00:37:50.413Z,18.63
2018-12-16T00:40:18.677Z,16.93
2018-12-16T00:42:46.918Z,18.80
2018-12-16T00:45:15.230Z,19.93
2018-12-16T00:47:43.620Z,19.63
2018-12-16T00:50:11.952Z,18.23
2018-12-16T00:52:40.259Z,18.47
2018-12-16T00:55:08.699Z,18.17
2018-12-16T00:57:36.981Z,17.80
2018-12-16T01:00:09.443Z,15.50
2018-12-16T01:02:42.199Z,17.80
2018-12-16T01:05:11.162Z,18.17
2018-12-16T01:07:39.547Z,17.50
2018-12-16T01:10:09.065Z,16.93
2018-12-16T01:12:37.282Z,17.13
2018-12-16T01:15:06.253Z,14.33
2018-12-16T01:17:34.572Z,16.10
2018-12-16T01:20:03.042Z,17.83
2018-12-16T01:22:31.335Z,16.77
2018-12-16T01:24:59.611Z,15.93
2018-12-16T01:27:27.874Z,16.97
2018-12-16T01:29:56.250Z,16.80
2018-12-16T01:32:24.551Z,16.87
2018-12-16T01:34:52.791Z,14.77
2018-12-16T01:37:21.216Z,16.43
2018-12-16T01:39:49.522Z,16.87
2018-12-16T01:42:17.762Z,15.90
2018-12-16T01:44:46.042Z,17.50
2018-12-16T01:47:14.264Z,17.03
2018-12-16T01:49:42.522Z,16.70
2018-12-16T01:52:10.777Z,16.57
2018-12-16T01:54:39.124Z,16.00
2018-12-16T01:57:07.381Z,15.87
2018-12-16T01:59:35.787Z,16.33
2018-12-16T02:02:04.112Z,16.37
2018-12-16T02:04:32.346Z,17.07
2018-12-16T02:07:00.656Z,15.23
2018-12-16T02:09:29.211Z,17.00
2018-12-16T02:11:57.475Z,17.80
2018-12-16T02:14:25.957Z,15.73
2018-12-16T02:16:54.211Z,17.33
2018-12-16T02:19:22.457Z,17.47
2018-12-16T02:21:50.744Z,17.70
2018-12-16T02:24:18.979Z,17.63
2018-12-16T02:26:47.203Z,17.33
2018-12-16T02:29:15.471Z,15.83
2018-12-16T02:31:43.751Z,17.40
2018-12-16T02:34:12.023Z,18.10
2018-12-16T02:36:40.375Z,16.70
2018-12-16T02:39:08.796Z,16.67
2018-12-16T02:41:37.035Z,18.47
2018-12-16T02:44:05.379Z,16.20
2018-12-16T02:46:33.590Z,18.77
2018-12-16T02:49:01.865Z,17.77
2018-12-16T02:51:30.184Z,17.63
2018-12-16T02:53:58.491Z,17.43
2018-12-16T02:56:26.701Z,17.30
2018-12-16T02:58:54.902Z,16.37
2018-12-16T03:01:23.122Z,17.60
2018-12-16T03:03:51.392Z,17.23
2018-12-16T03:06:19.628Z,17.53
2018-12-16T03:08:47.966Z,18.47
2018-12-16T03:11:16.438Z,17.23
2018-12-16T03:13:44.711Z,18.43
2018-12-16T03:16:12.903Z,17.13
2018-12-16T03:18:41.253Z,18.60
2018-12-16T03:21:09.496Z,17.80
2018-12-16T03:23:37.782Z,17.23
2018-12-16T03:26:06.074Z,19.87
2018-12-16T03:28:34.301Z,19.17
2018-12-16T03:31:02.589Z,17.30
2018-12-16T03:33:30.957Z,18.43
2018-12-16T03:35:59.183Z,20.43
2018-12-16T03:38:27.475Z,20.47
2018-12-16T03:40:55.713Z,19.20
2018-12-16T03:43:24.007Z,19.53
2018-12-16T03:45:52.219Z,18.33
2018-12-16T03:48:20.457Z,19.20
2018-12-16T03:50:48.817Z,19.10
2018-12-16T03:53:20.096Z,19.43
2018-12-16T03:55:47.295Z,20.07
2018-12-16T03:58:15.596Z,19.03
2018-12-16T04:00:44.013Z,18.87
2018-12-16T04:03:12.269Z,17.63
2018-12-16T04:05:40.485Z,18.50
2018-12-16T04:08:08.748Z,19.33
2018-12-16T04:10:37.119Z,19.60
2018-12-16T04:13:05.426Z,18.10
2018-12-16T04:15:33.824Z,19.23
2018-12-16T04:18:02.139Z,19.73
2018-12-16T04:20:30.375Z,19.47
2018-12-16T04:22:58.595Z,17.70
2018-12-16T04:25:26.924Z,18.30
2018-12-16T04:27:55.214Z,18.70
2018-12-16T04:30:23.483Z,19.43
2018-12-16T04:32:51.748Z,18.43
2018-12-16T04:35:20.017Z,19.20
2018-12-16T04:37:48.296Z,18.77
2018-12-16T04:40:16.591Z,19.40
2018-12-16T04:42:44.792Z,19.30
2018-12-16T04:45:13.407Z,19.10
2018-12-16T04:47:41.610Z,18.83
2018-12-16T04:50:10.022Z,19.70
2018-12-16T04:52:38.243Z,17.93
2018-12-16T04:55:06.503Z,17.43
2018-12-16T04:57:34.821Z,19.40
2018-12-16T05:00:03.150Z,20.00
2018-12-16T05:02:31.356Z,18.77
2018-12-16T05:04:59.547Z,18.60
2018-12-16T05:07:27.766Z,18.70
2018-12-16T05:10:06.047Z,18.17
2018-12-16T05:12:34.297Z,19.37
2018-12-16T05:15:02.518Z,17.53
2018-12-16T05:17:30.744Z,20.23
2018-12-16T05:19:58.958Z,18.67
2018-12-16T05:22:27.169Z,19.37
2018-12-16T05:24:55.513Z,20.50
2018-12-16T05:27:23.746Z,19.97
2018-12-16T05:29:51.898Z,17.77
2018-12-16T05:32:20.116Z,18.50
2018-12-16T05:34:48.302Z,19.27
2018-12-16T05:37:16.512Z,19.37
2018-12-16T05:39:44.741Z,18.83
2018-12-16T05:42:12.918Z,20.10
2018-12-16T05:44:41.078Z,19.67
2018-12-16T05:47:09.454Z,18.90
2018-12-16T05:49:37.640Z,19.77
2018-12-16T05:52:05.832Z,20.13
2018-12-16T05:54:34.057Z,20.57
2018-12-16T05:57:02.358Z,18.70
2018-12-16T05:59:30.542Z,19.43
2018-12-16T06:01:58.750Z,18.37
2018-12-16T06:04:26.946Z,18.57
2018-12-16T06:06:55.180Z,17.80
2018-12-16T06:09:23.380Z,21.07
2018-12-16T06:11:51.677Z,19.70
2018-12-16T06:14:19.833Z,18.83
2018-12-16T06:16:48.078Z,19.70
2018-12-16T06:19:16.417Z,19.00
2018-12-16T06:21:44.608Z,19.13
2018-12-16T06:24:12.869Z,18.37
2018-12-16T06:26:41.123Z,18.87
2018-12-16T06:29:09.357Z,19.73
2018-12-16T06:31:37.615Z,18.53
2018-12-16T06:34:05.805Z,19.87
2018-12-16T06:36:34.001Z,18.40
2018-12-16T06:39:02.216Z,19.37
2018-12-16T06:41:30.393Z,19.10
2018-12-16T06:43:58.635Z,19.23
2018-12-16T06:46:26.852Z,20.43
2018-12-16T06:48:55.070Z,18.27
2018-12-16T06:51:23.319Z,17.43
2018-12-16T06:53:51.597Z,18.80
2018-12-16T06:56:19.970Z,17.13
2018-12-16T06:58:48.181Z,20.53
2018-12-16T07:01:16.410Z,20.57
2018-12-16T07:03:44.652Z,18.43
2018-12-16T07:06:12.849Z,19.40
2018-12-16T07:08:41.038Z,21.23
2018-12-16T07:11:09.328Z,20.07
2018-12-16T07:13:37.611Z,20.50
2018-12-16T07:16:05.989Z,18.47
2018-12-16T07:18:40.935Z,18.73
2018-12-16T07:21:09.122Z,19.93
2018-12-16T07:23:37.337Z,19.03
2018-12-16T07:26:05.610Z,19.20
2018-12-16T07:28:33.808Z,19.27
2018-12-16T07:31:02.080Z,19.03
2018-12-16T07:33:30.324Z,20.63
2018-12-16T07:35:58.664Z,19.10
2018-12-16T07:38:26.884Z,20.03
2018-12-16T07:40:55.094Z,18.33
2018-12-16T07:43:23.463Z,20.73
2018-12-16T07:45:51.655Z,19.50
2018-12-16T07:48:20.139Z,18.23
2018-12-16T07:50:48.480Z,21.03
2018-12-16T07:53:16.665Z,18.77
2018-12-16T07:55:44.900Z,19.23
2018-12-16T07:58:13.145Z,20.93
2018-12-16T08:00:41.447Z,19.73
2018-12-16T08:03:09.734Z,20.57
2018-12-16T08:05:37.990Z,19.93
2018-12-16T08:08:06.306Z,19.50
2018-12-16T08:10:34.633Z,18.47
2018-12-16T08:13:02.822Z,19.83
2018-12-16T08:15:31.119Z,20.27
2018-12-16T08:17:59.382Z,19.07
2018-12-16T08:20:27.644Z,19.43
2018-12-16T08:22:55.868Z,19.43
2018-12-16T08:25:24.137Z,19.80
2018-12-16T08:27:52.345Z,19.57
2018-12-16T08:30:20.588Z,18.57
2018-12-16T08:32:48.790Z,18.87
2018-12-16T08:35:16.963Z,19.63
2018-12-16T08:37:45.387Z,19.23
2018-12-16T08:40:13.635Z,19.80
2018-12-16T08:42:41.912Z,19.30
2018-12-16T08:45:10.221Z,21.17
2018-12-16T08:47:38.426Z,21.30
2018-12-16T08:50:07.387Z,21.50
2018-12-16T08:52:35.738Z,20.83
2018-12-16T08:55:04.335Z,21.37
2018-12-16T08:57:32.630Z,19.43
2018-12-16T09:00:00.909Z,21.20
2018-12-16T09:02:29.076Z,19.83
2018-12-16T09:04:57.286Z,19.20
2018-12-16T09:07:25.475Z,20.30
2018-12-16T09:09:53.773Z,20.33
2018-12-16T09:12:21.980Z,21.57
2018-12-16T09:14:50.218Z,22.00
2018-12-16T09:17:18.454Z,22.00
2018-12-16T09:19:46.693Z,22.40
2018-12-16T09:22:15.036Z,23.37
2018-12-16T09:24:43.194Z,22.77
2018-12-16T09:27:11.392Z,21.53
2018-12-16T09:29:39.834Z,22.10
2018-12-16T09:32:08.047Z,20.07
2018-12-16T09:34:36.230Z,21.57
2018-12-16T09:37:04.618Z,22.17
2018-12-16T09:39:32.813Z,22.20
2018-12-16T09:42:00.994Z,22.10
2018-12-16T09:44:29.190Z,27.20
2018-12-16T09:46:57.393Z,25.27
2018-12-16T09:49:25.568Z,22.50
2018-12-16T09:51:53.801Z,20.97
2018-12-16T09:54:21.966Z,22.93
2018-12-16T09:56:50.427Z,22.37
2018-12-16T09:59:18.622Z,22.07
2018-12-16T10:01:46.812Z,21.63
2018-12-16T10:04:15.033Z,20.90
2018-12-16T10:06:43.261Z,23.20
2018-12-16T10:09:11.428Z,20.87
2018-12-16T10:11:39.710Z,19.60
2018-12-16T10:14:07.925Z,22.47
2018-12-16T10:16:36.109Z,23.13
2018-12-16T10:19:04.360Z,21.27
2018-12-16T10:21:32.575Z,21.57
2018-12-16T10:24:00.770Z,21.07
2018-12-16T10:26:29.242Z,21.27
2018-12-16T10:28:57.595Z,21.87
2018-12-16T10:31:25.917Z,21.47
2018-12-16T10:33:54.249Z,22.90
2018-12-16T10:36:22.684Z,21.83
2018-12-16T10:38:51.000Z,21.70
2018-12-16T10:41:19.278Z,20.63
2018-12-16T10:43:47.505Z,24.77
2018-12-16T10:46:15.945Z,22.63
2018-12-16T10:48:44.114Z,23.20
2018-12-16T10:51:12.269Z,20.67
2018-12-16T10:53:40.539Z,22.33
2018-12-16T10:56:08.793Z,22.73
2018-12-16T10:58:37.161Z,21.40
2018-12-16T11:01:11.166Z,23.37
2018-12-16T11:03:39.423Z,20.53
2018-12-16T11:06:07.710Z,20.77
2018-12-16T11:08:36.585Z,21.23
2018-12-16T11:11:04.794Z,23.07
2018-12-16T11:13:33.055Z,20.97
2018-12-16T11:16:03.407Z,22.17
2018-12-16T11:18:31.803Z,21.13
2018-12-16T11:21:00.103Z,21.63
2018-12-16T11:23:28.405Z,21.47
2018-12-16T11:25:57.516Z,20.57
2018-12-16T11:28:25.794Z,20.47
2018-12-16T11:30:54.021Z,21.53
2018-12-16T11:33:22.231Z,27.83
2018-12-16T11:35:50.830Z,21.13
2018-12-16T11:38:19.040Z,22.13
2018-12-16T11:40:47.232Z,22.67
2018-12-16T11:43:15.416Z,22.50
2018-12-16T11:46:46.774Z,22.53
2018-12-16T11:49:15.198Z,20.57
2018-12-16T11:51:43.886Z,21.13
2018-12-16T11:54:12.207Z,22.60
2018-12-16T11:56:40.488Z,21.13
2018-12-16T11:59:08.830Z,22.03
2018-12-16T12:01:37.268Z,21.13
2018-12-16T12:04:06.078Z,21.87
2018-12-16T12:06:34.598Z,21.07
2018-12-16T12:09:04.258Z,21.80
2018-12-16T12:11:32.764Z,22.80
2018-12-16T12:14:01.096Z,21.77
2018-12-16T12:16:29.453Z,20.97
2018-12-16T12:19:01.110Z,21.90
2018-12-16T12:21:29.473Z,21.97
2018-12-16T12:23:57.767Z,23.63
2018-12-16T12:26:25.951Z,23.60
2018-12-16T12:28:54.238Z,25.17
2018-12-16T12:31:22.678Z,24.20
2018-12-16T12:33:50.991Z,26.30
2018-12-16T12:36:19.386Z,23.93
2018-12-16T12:38:47.681Z,25.10
2018-12-16T12:41:15.921Z,24.40
2018-12-16T12:43:44.112Z,22.50
2018-12-16T12:46:12.346Z,23.17
2018-12-16T12:48:40.611Z,23.53
2018-12-16T12:51:08.918Z,22.83
2018-12-16T12:53:37.518Z,20.93
2018-12-16T12:56:05.811Z,22.50
2018-12-16T12:58:34.027Z,22.87
2018-12-16T13:01:02.206Z,21.90
2018-12-16T13:03:30.435Z,23.23
2018-12-16T13:05:58.690Z,24.90
2018-12-16T13:08:26.902Z,25.00
2018-12-16T13:10:55.306Z,23.63
2018-12-16T13:13:23.458Z,24.43
2018-12-16T13:15:51.712Z,23.03
2018-12-16T13:18:19.974Z,23.33
2018-12-16T13:20:48.195Z,24.33
2018-12-16T13:23:16.437Z,24.80
2018-12-16T13:25:56.469Z,21.83
2018-12-16T13:28:24.705Z,22.23
2018-12-16T13:30:53.124Z,23.20
2018-12-16T13:33:21.334Z,24.73
2018-12-16T13:35:49.687Z,24.00
2018-12-16T13:38:17.876Z,24.23
2018-12-16T13:40:46.080Z,23.97
2018-12-16T13:43:14.243Z,21.37
2018-12-16T13:45:42.445Z,23.00
2018-12-16T13:48:10.658Z,25.37
2018-12-16T13:50:38.962Z,23.53
2018-12-16T13:53:07.195Z,24.13
2018-12-16T13:55:40.791Z,24.13
2018-12-16T13:58:05.778Z,22.63
2018-12-16T14:00:34.041Z,25.60
2018-12-16T14:03:02.312Z,23.33
2018-12-16T14:05:30.504Z,24.73
2018-12-16T14:07:58.733Z,23.97
2018-12-16T14:10:26.915Z,25.23
2018-12-16T14:12:55.105Z,24.57
2018-12-16T14:15:23.303Z,24.50
2018-12-16T14:17:51.526Z,24.23
2018-12-16T14:20:20.634Z,25.33
2018-12-16T14:22:48.844Z,23.90
2018-12-16T14:25:23.781Z,24.97
2018-12-16T14:27:52.056Z,24.57
2018-12-16T14:30:20.390Z,27.27
2018-12-16T14:32:48.728Z,26.77
2018-12-16T14:35:17.076Z,26.87
2018-12-16T14:37:45.486Z,25.80
2018-12-16T14:40:13.802Z,25.70
2018-12-16T14:42:42.050Z,24.17
2018-12-16T14:45:10.980Z,24.73
2018-12-16T14:47:39.212Z,24.93
2018-12-16T14:50:09.874Z,26.93
2018-12-16T14:52:38.105Z,23.13
2018-12-16T14:55:07.555Z,24.20
2018-12-16T14:57:35.868Z,23.30
2018-12-16T15:00:06.397Z,24.20
2018-12-16T15:02:34.568Z,26.10
2018-12-16T15:05:02.757Z,24.53
2018-12-16T15:07:30.967Z,27.97
2018-12-16T15:09:59.242Z,25.87
2018-12-16T15:12:27.661Z,23.70
2018-12-16T15:14:56.218Z,24.73
2018-12-16T15:17:24.555Z,24.03
2018-12-16T15:19:52.734Z,25.00
2018-12-16T15:22:21.025Z,28.53
2018-12-16T15:24:49.195Z,28.13
2018-12-16T15:27:18.382Z,40.27
2018-12-16T15:29:46.732Z,28.20
2018-12-16T15:32:14.964Z,33.17
2018-12-16T15:34:43.197Z,40.73
2018-12-16T15:37:11.388Z,28.27
2018-12-16T15:39:39.706Z,26.40
2018-12-16T15:42:07.957Z,27.43
2018-12-16T15:44:36.426Z,27.70
2018-12-16T15:47:04.765Z,24.70
2018-12-16T15:49:33.048Z,28.60
2018-12-16T15:52:01.295Z,24.83
2018-12-16T15:54:29.449Z,23.97
2018-12-16T15:56:57.677Z,27.67
2018-12-16T15:59:25.843Z,29.20
2018-12-16T16:01:54.014Z,26.10
2018-12-16T16:04:22.277Z,27.93
2018-12-16T16:06:50.564Z,33.20
2018-12-16T16:09:18.814Z,32.27
2018-12-16T16:11:47.024Z,27.67
2018-12-16T16:14:15.375Z,31.80
2018-12-16T16:16:43.533Z,35.00
2018-12-16T16:19:11.710Z,50.53
2018-12-16T16:21:39.909Z,44.03
2018-12-16T16:24:08.133Z,44.53
2018-12-16T16:26:36.409Z,35.87
2018-12-16T16:29:04.748Z,29.07
2018-12-16T16:31:32.944Z,26.43
2018-12-16T16:34:01.212Z,30.63
2018-12-16T16:36:29.409Z,26.23
2018-12-16T16:38:57.623Z,26.57
2018-12-16T16:41:25.814Z,26.57
2018-12-16T16:43:54.876Z,27.00
2018-12-16T16:46:23.135Z,25.40
2018-12-16T16:48:51.353Z,25.43
2018-12-16T16:51:19.642Z,27.73
2018-12-16T16:53:47.873Z,32.83
2018-12-16T16:56:22.899Z,37.97
2018-12-16T16:58:46.498Z,37.50
2018-12-16T17:01:14.826Z,26.43
2018-12-16T17:03:43.081Z,23.60
2018-12-16T17:06:11.226Z,22.33
2018-12-16T17:08:39.398Z,22.57
2018-12-16T17:11:07.983Z,20.10
2018-12-16T17:13:36.353Z,21.43
2018-12-16T17:16:04.655Z,20.33
2018-12-16T17:18:32.992Z,20.57
2018-12-16T17:21:01.221Z,21.00
2018-12-16T17:23:29.383Z,25.40
2018-12-16T17:25:57.585Z,20.83
2018-12-16T17:28:25.911Z,21.40
2018-12-16T17:30:54.219Z,20.20
2018-12-16T17:33:22.386Z,20.23
2018-12-16T17:35:50.610Z,21.53
2018-12-16T17:38:18.899Z,21.03
2018-12-16T17:40:47.107Z,21.50
2018-12-16T17:43:15.306Z,23.73
2018-12-16T17:45:43.493Z,21.23
2018-12-16T17:48:11.773Z,39.50
2018-12-16T17:50:39.960Z,32.13
2018-12-16T17:53:08.186Z,25.73
2018-12-16T17:55:36.388Z,26.20
2018-12-16T17:58:04.699Z,23.07
2018-12-16T18:00:33.073Z,22.77
2018-12-16T18:03:01.426Z,22.23
2018-12-16T18:05:29.739Z,19.97
2018-12-16T18:07:57.984Z,20.83
2018-12-16T18:10:26.327Z,30.40
2018-12-16T18:12:54.584Z,35.73
2018-12-16T18:15:22.827Z,40.30
2018-12-16T18:17:51.009Z,49.30
2018-12-16T18:20:19.407Z,42.77
2018-12-16T18:22:47.614Z,34.73
2018-12-16T18:25:15.873Z,28.80
2018-12-16T18:27:44.085Z,34.23
2018-12-16T18:30:12.426Z,27.60
2018-12-16T18:32:40.664Z,30.40
2018-12-16T18:35:09.036Z,57.60
2018-12-16T18:37:37.719Z,26.80
2018-12-16T18:40:06.861Z,18.67
2018-12-16T18:42:35.078Z,23.90
2018-12-16T18:45:03.624Z,19.10
2018-12-16T18:47:31.896Z,18.77
2018-12-16T18:50:00.089Z,18.80
2018-12-16T18:52:28.319Z,21.40
2018-12-16T18:54:56.658Z,24.63
2018-12-16T18:57:24.831Z,20.80
2018-12-16T18:59:53.044Z,18.67
2018-12-16T19:02:21.261Z,20.03
2018-12-16T19:04:49.485Z,21.23
2018-12-16T19:07:17.735Z,20.60
2018-12-16T19:09:46.060Z,21.53
2018-12-16T19:12:14.261Z,21.40
2018-12-16T19:14:42.985Z,19.83
2018-12-16T19:17:11.189Z,21.60
2018-12-16T19:19:39.423Z,22.23
2018-12-16T19:22:07.638Z,19.57
2018-12-16T19:24:35.906Z,18.47
2018-12-16T19:27:04.103Z,18.57
2018-12-16T19:29:32.287Z,18.97
2018-12-16T19:32:00.456Z,17.97
2018-12-16T19:34:28.740Z,17.70
2018-12-16T19:36:56.956Z,20.33
2018-12-16T19:39:25.275Z,20.07
2018-12-16T19:41:53.688Z,21.53
2018-12-16T19:44:21.930Z,24.53
2018-12-16T19:46:50.125Z,23.53
2018-12-16T19:49:18.387Z,27.20
2018-12-16T19:51:46.696Z,24.63
2018-12-16T19:54:14.964Z,22.20
2018-12-16T19:56:43.152Z,23.40
2018-12-16T19:59:11.357Z,25.07
2018-12-16T20:01:39.581Z,22.53
2018-12-16T20:04:13.438Z,22.03
2018-12-16T20:06:46.206Z,19.47
2018-12-16T20:09:14.581Z,21.23
2018-12-16T20:11:42.942Z,22.30
2018-12-16T20:14:11.391Z,21.57
2018-12-16T20:16:39.688Z,21.47
2018-12-16T20:19:07.899Z,20.47
2018-12-16T20:21:36.074Z,19.43
2018-12-16T20:24:04.427Z,20.43
2018-12-16T20:26:32.627Z,19.87
2018-12-16T20:29:00.838Z,20.33
2018-12-16T20:31:29.209Z,20.17
2018-12-16T20:33:57.415Z,19.00
2018-12-16T20:36:25.694Z,18.70
2018-12-16T20:38:53.981Z,19.70
2018-12-16T20:41:22.200Z,18.67
2018-12-16T20:43:50.482Z,19.63
2018-12-16T20:46:18.875Z,17.60
2018-12-16T20:48:47.067Z,16.80
2018-12-16T20:51:15.318Z,18.70
2018-12-16T20:53:43.694Z,19.37
2018-12-16T20:56:12.006Z,17.87
2018-12-16T20:58:40.254Z,16.87
2018-12-16T21:01:08.611Z,18.57
2018-12-16T21:03:36.893Z,18.53
2018-12-16T21:06:05.246Z,20.27
2018-12-16T21:08:33.524Z,19.90
2018-12-16T21:11:06.056Z,18.50
2018-12-16T21:13:39.611Z,18.30
2018-12-16T21:16:13.259Z,17.83
2018-12-16T21:18:41.699Z,17.90
2018-12-16T21:21:09.913Z,18.60
2018-12-16T21:23:38.172Z,18.23
2018-12-16T21:26:06.532Z,17.40
2018-12-16T21:28:34.947Z,15.53
2018-12-16T21:31:03.205Z,16.83
2018-12-16T21:33:31.461Z,15.97
2018-12-16T21:35:59.659Z,16.43
2018-12-16T21:38:28.185Z,16.30
2018-12-16T21:40:56.362Z,14.83
2018-12-16T21:43:24.612Z,16.47
2018-12-16T21:45:52.812Z,14.37
2018-12-16T21:48:21.103Z,16.07
2018-12-16T21:50:49.303Z,15.53
2018-12-16T21:53:17.721Z,14.37
2018-12-16T21:55:45.914Z,15.30
2018-12-16T21:58:14.114Z,15.50
2018-12-16T22:00:42.263Z,16.20
2018-12-16T22:03:10.539Z,14.83
2018-12-16T22:05:38.874Z,14.33
2018-12-16T22:08:07.240Z,15.07
2018-12-16T22:10:35.464Z,14.27
2018-12-16T22:13:03.605Z,14.90
2018-12-16T22:15:32.130Z,14.20
2018-12-16T22:18:00.319Z,14.40
2018-12-16T22:20:28.573Z,15.97
2018-12-16T22:22:56.808Z,16.07
2018-12-16T22:25:25.071Z,15.20
2018-12-16T22:27:53.328Z,14.03
2018-12-16T22:30:21.543Z,13.37
2018-12-16T22:32:49.786Z,14.60
2018-12-16T22:35:17.993Z,13.80
2018-12-16T22:37:46.282Z,13.53
2018-12-16T22:40:14.801Z,14.20
2018-12-16T22:42:42.975Z,14.57
2018-12-16T22:45:11.137Z,15.00
2018-12-16T22:47:39.379Z,14.73
2018-12-16T22:50:07.740Z,13.60
2018-12-16T22:52:35.931Z,13.30
2018-12-16T22:55:04.310Z,14.57
2018-12-16T22:57:32.510Z,15.53
2018-12-16T23:00:00.672Z,13.77
2018-12-16T23:02:28.888Z,14.33
2018-12-16T23:04:57.037Z,15.07
2018-12-16T23:07:25.269Z,14.23
2018-12-16T23:09:53.473Z,14.97
2018-12-16T23:12:21.658Z,14.50
2018-12-16T23:14:51.054Z,14.13
2018-12-16T23:17:19.566Z,14.63
2018-12-16T23:19:52.037Z,15.20
2018-12-16T23:22:20.178Z,15.77
2018-12-16T23:24:48.881Z,13.97
2018-12-16T23:27:17.135Z,15.70
2018-12-16T23:29:45.370Z,15.97
2018-12-16T23:32:13.585Z,15.77
2018-12-16T23:34:41.781Z,15.80
2018-12-16T23:37:10.039Z,15.23
2018-12-16T23:39:38.202Z,16.80
2018-12-16T23:42:06.378Z,15.57
2018-12-16T23:44:34.562Z,15.97
2018-12-16T23:47:02.814Z,14.47
2018-12-16T23:49:30.991Z,14.03
2018-12-16T23:51:59.213Z,15.40
2018-12-16T23:54:27.389Z,15.13
2018-12-16T23:56:55.682Z,14.90
2018-12-16T23:59:23.868Z,14.53
